createdAt,value
2019-01-29T00:00:50.446Z,8.13
2019-01-29T00:03:16.876Z,5.60
2019-01-29T00:05:44.799Z,8.83
2019-01-29T00:08:11.121Z,8.10
2019-01-29T00:10:37.383Z,6.50
2019-01-29T00:13:03.611Z,7.93
2019-01-29T00:15:29.812Z,8.43
2019-01-29T00:17:55.985Z,5.23
2019-01-29T00:20:22.245Z,8.07
2019-01-29T00:22:48.391Z,4.40
2019-01-29T00:25:14.524Z,5.50
2019-01-29T00:27:40.705Z,7.93
2019-01-29T00:30:14.124Z,5.63
2019-01-29T00:32:40.373Z,10.07
2019-01-29T00:35:06.762Z,5.97
2019-01-29T00:37:32.903Z,10.17
2019-01-29T00:39:59.732Z,6.87
2019-01-29T00:42:25.901Z,3.63
2019-01-29T00:44:52.193Z,5.40
2019-01-29T00:47:18.337Z,8.07
2019-01-29T00:49:44.597Z,6.53
2019-01-29T00:52:10.733Z,7.03
2019-01-29T00:54:38.877Z,6.30
2019-01-29T00:57:05.017Z,7.77
2019-01-29T00:59:31.276Z,5.30
2019-01-29T01:01:57.622Z,7.47
2019-01-29T01:04:23.903Z,4.60
2019-01-29T01:06:50.164Z,5.17
2019-01-29T01:09:16.345Z,4.27
2019-01-29T01:11:42.606Z,7.30
2019-01-29T01:14:08.729Z,6.90
2019-01-29T01:16:35.018Z,6.33
2019-01-29T01:19:01.249Z,6.93
2019-01-29T01:21:27.548Z,6.13
2019-01-29T01:23:53.766Z,4.57
2019-01-29T01:26:19.907Z,4.87
2019-01-29T01:28:46.035Z,5.93
2019-01-29T01:31:12.198Z,6.00
2019-01-29T01:33:38.459Z,7.03
2019-01-29T01:36:06.551Z,6.07
2019-01-29T01:38:32.726Z,5.07
2019-01-29T01:40:58.946Z,5.17
2019-01-29T01:43:25.208Z,4.73
2019-01-29T01:45:51.440Z,7.77
2019-01-29T01:48:19.378Z,7.93
2019-01-29T01:50:45.737Z,4.73
2019-01-29T01:53:12.020Z,4.90
2019-01-29T01:55:38.280Z,6.93
2019-01-29T01:58:08.335Z,7.57
2019-01-29T02:00:37.839Z,5.73
2019-01-29T02:03:04.103Z,9.37
2019-01-29T02:05:31.962Z,7.63
2019-01-29T02:07:58.306Z,3.30
2019-01-29T02:10:26.866Z,4.80
2019-01-29T02:12:53.149Z,5.53
2019-01-29T02:15:21.710Z,7.97
2019-01-29T02:17:47.963Z,7.53
2019-01-29T02:20:15.291Z,6.03
2019-01-29T02:22:41.901Z,4.97
2019-01-29T02:25:10.021Z,6.67
2019-01-29T02:27:36.249Z,3.00
2019-01-29T02:30:05.830Z,6.33
2019-01-29T02:32:33.864Z,4.20
2019-01-29T02:35:00.260Z,5.47
2019-01-29T02:37:26.570Z,3.13
2019-01-29T02:39:53.959Z,5.43
2019-01-29T02:42:21.919Z,3.57
2019-01-29T02:44:48.199Z,4.37
2019-01-29T02:47:14.321Z,4.17
2019-01-29T02:49:40.650Z,7.17
2019-01-29T02:52:06.974Z,7.93
2019-01-29T02:54:33.350Z,5.33
2019-01-29T02:57:01.428Z,3.03
2019-01-29T02:59:27.742Z,5.00
2019-01-29T03:01:55.041Z,6.57
2019-01-29T03:04:21.198Z,3.90
2019-01-29T03:06:49.243Z,7.70
2019-01-29T03:09:15.454Z,5.70
2019-01-29T03:11:41.766Z,3.63
2019-01-29T03:14:08.062Z,4.37
2019-01-29T03:16:35.452Z,4.07
2019-01-29T03:19:01.729Z,6.10
2019-01-29T03:21:31.541Z,6.10
2019-01-29T03:23:58.030Z,3.50
2019-01-29T03:26:24.254Z,4.47
2019-01-29T03:28:56.249Z,3.20
2019-01-29T03:31:22.443Z,5.80
2019-01-29T03:33:50.980Z,4.37
2019-01-29T03:36:20.686Z,3.90
2019-01-29T03:38:48.036Z,7.30
2019-01-29T03:41:14.618Z,5.93
2019-01-29T03:43:41.645Z,3.23
2019-01-29T03:46:13.221Z,6.93
2019-01-29T03:48:39.547Z,4.47
2019-01-29T03:51:08.646Z,7.63
2019-01-29T03:53:38.130Z,5.67
2019-01-29T03:56:05.736Z,2.93
2019-01-29T03:58:35.248Z,3.47
2019-01-29T04:01:05.337Z,7.00
2019-01-29T04:03:32.908Z,9.67
2019-01-29T04:05:59.339Z,4.60
2019-01-29T04:08:31.223Z,6.40
2019-01-29T04:10:57.557Z,6.80
2019-01-29T04:13:23.790Z,4.70
2019-01-29T04:15:52.658Z,7.40
2019-01-29T04:18:21.798Z,4.33
2019-01-29T04:20:49.245Z,5.20
2019-01-29T04:23:15.595Z,5.00
2019-01-29T04:25:41.817Z,6.97
2019-01-29T04:28:11.225Z,6.47
2019-01-29T04:30:43.383Z,8.63
2019-01-29T04:33:10.746Z,5.90
2019-01-29T04:35:41.375Z,3.93
2019-01-29T04:38:08.864Z,4.77
2019-01-29T04:40:35.403Z,6.73
2019-01-29T04:43:03.760Z,7.53
2019-01-29T04:45:30.302Z,4.67
2019-01-29T04:47:56.941Z,3.90
2019-01-29T04:50:23.251Z,4.27
2019-01-29T04:52:49.609Z,7.17
2019-01-29T04:55:17.764Z,4.93
2019-01-29T04:57:45.880Z,6.07
2019-01-29T05:00:14.945Z,6.40
2019-01-29T05:02:41.413Z,7.67
2019-01-29T05:05:09.498Z,6.07
2019-01-29T05:07:36.076Z,7.70
2019-01-29T05:10:08.825Z,5.17
2019-01-29T05:12:35.440Z,3.27
2019-01-29T05:15:02.482Z,7.53
2019-01-29T05:17:30.640Z,4.03
2019-01-29T05:19:57.030Z,6.53
2019-01-29T05:22:25.440Z,6.63
2019-01-29T05:24:52.870Z,8.40
2019-01-29T05:27:19.187Z,9.77
2019-01-29T05:32:34.357Z,3.87
2019-01-29T05:35:00.667Z,7.20
2019-01-29T05:37:29.457Z,6.77
2019-01-29T05:39:57.497Z,7.73
2019-01-29T05:42:26.202Z,6.43
2019-01-29T05:44:54.606Z,8.23
2019-01-29T05:47:21.825Z,7.07
2019-01-29T05:49:48.151Z,9.23
2019-01-29T05:52:16.432Z,7.33
2019-01-29T05:54:42.905Z,6.13
2019-01-29T05:57:11.032Z,9.37
2019-01-29T05:59:37.518Z,5.80
2019-01-29T06:02:07.248Z,7.20
2019-01-29T06:04:34.240Z,5.70
2019-01-29T06:07:01.142Z,6.90
2019-01-29T06:09:27.465Z,10.10
2019-01-29T06:11:54.740Z,8.43
2019-01-29T06:14:21.025Z,7.93
2019-01-29T06:16:47.312Z,7.67
2019-01-29T06:19:17.380Z,6.30
2019-01-29T06:21:43.839Z,7.70
2019-01-29T06:24:11.218Z,10.20
2019-01-29T06:26:39.305Z,13.10
2019-01-29T06:29:06.750Z,10.13
2019-01-29T06:31:33.048Z,11.10
2019-01-29T06:33:59.648Z,8.73
2019-01-29T06:36:27.915Z,7.80
2019-01-29T06:38:58.672Z,5.90
2019-01-29T06:41:28.288Z,11.30
2019-01-29T06:43:54.898Z,9.07
2019-01-29T06:46:21.347Z,8.13
2019-01-29T06:48:47.636Z,9.97
2019-01-29T06:51:15.799Z,10.37
2019-01-29T06:53:42.028Z,7.73
2019-01-29T06:56:10.395Z,8.27
2019-01-29T06:58:38.086Z,6.60
2019-01-29T07:01:04.667Z,7.43
2019-01-29T07:03:31.988Z,13.03
2019-01-29T07:05:58.094Z,9.00
2019-01-29T07:08:24.322Z,9.33
2019-01-29T07:10:50.475Z,10.63
2019-01-29T07:13:16.714Z,10.07
2019-01-29T07:15:56.724Z,9.53
2019-01-29T07:18:24.746Z,9.07
2019-01-29T07:20:50.920Z,8.23
2019-01-29T07:23:17.051Z,8.83
2019-01-29T07:25:43.329Z,9.13
2019-01-29T07:28:09.446Z,8.67
2019-01-29T07:30:37.612Z,6.97
2019-01-29T07:33:03.761Z,7.53
2019-01-29T07:35:29.922Z,10.10
2019-01-29T07:37:56.061Z,4.57
2019-01-29T07:40:22.219Z,9.50
2019-01-29T07:42:48.455Z,7.00
2019-01-29T07:45:14.901Z,5.13
2019-01-29T07:47:41.088Z,5.73
2019-01-29T07:50:12.284Z,7.43
2019-01-29T07:52:38.413Z,7.57
2019-01-29T07:55:07.316Z,6.33
2019-01-29T07:57:33.565Z,7.20
2019-01-29T07:59:59.661Z,11.13
2019-01-29T08:02:25.830Z,7.93
2019-01-29T08:04:52.039Z,10.80
2019-01-29T08:07:18.176Z,7.43
2019-01-29T08:09:44.546Z,7.33
2019-01-29T08:12:11.209Z,9.07
2019-01-29T08:14:37.486Z,10.40
2019-01-29T08:17:03.692Z,13.17
2019-01-29T08:19:29.920Z,8.37
2019-01-29T08:21:56.034Z,6.57
2019-01-29T08:24:22.241Z,7.17
2019-01-29T08:26:48.476Z,9.33
2019-01-29T08:29:14.590Z,11.93
2019-01-29T08:31:40.706Z,11.23
2019-01-29T08:34:06.890Z,6.73
2019-01-29T08:36:33.054Z,11.80
2019-01-29T08:38:59.287Z,5.83
2019-01-29T08:41:25.434Z,10.70
2019-01-29T08:43:51.557Z,9.80
2019-01-29T08:46:17.720Z,7.00
2019-01-29T08:48:43.848Z,7.87
2019-01-29T08:51:10.060Z,10.70
2019-01-29T08:53:36.270Z,8.77
2019-01-29T08:56:03.228Z,9.20
2019-01-29T08:58:29.484Z,8.47
2019-01-29T09:00:55.625Z,5.83
2019-01-29T09:03:21.867Z,9.90
2019-01-29T09:05:48.000Z,8.23
2019-01-29T09:08:14.243Z,10.07
2019-01-29T09:10:40.424Z,9.03
2019-01-29T09:13:06.575Z,7.33
2019-01-29T09:15:32.837Z,7.70
2019-01-29T09:17:59.049Z,7.70
2019-01-29T09:20:25.216Z,7.50
2019-01-29T09:22:51.382Z,13.67
2019-01-29T09:25:20.807Z,9.17
2019-01-29T09:27:45.846Z,6.83
2019-01-29T09:30:16.580Z,9.87
2019-01-29T09:32:42.699Z,11.70
2019-01-29T09:35:08.950Z,12.00
2019-01-29T09:37:35.230Z,8.70
2019-01-29T09:40:01.390Z,6.13
2019-01-29T09:42:27.612Z,9.53
2019-01-29T09:44:53.883Z,8.43
2019-01-29T09:47:20.028Z,7.93
2019-01-29T09:49:46.134Z,5.67
2019-01-29T09:52:12.283Z,7.70
2019-01-29T09:54:38.525Z,7.67
2019-01-29T09:57:04.679Z,7.50
2019-01-29T09:59:30.831Z,7.63
2019-01-29T10:01:56.935Z,6.70
2019-01-29T10:04:23.125Z,8.17
2019-01-29T10:06:49.413Z,9.23
2019-01-29T10:09:15.538Z,6.30
2019-01-29T10:11:41.744Z,8.37
2019-01-29T10:14:07.928Z,12.10
2019-01-29T10:16:34.070Z,8.13
2019-01-29T10:19:00.320Z,8.87
2019-01-29T10:21:26.465Z,8.90
2019-01-29T10:23:52.707Z,8.40
2019-01-29T10:26:18.818Z,7.90
2019-01-29T10:28:45.466Z,9.50
2019-01-29T10:31:11.699Z,8.67
2019-01-29T10:33:37.926Z,7.73
2019-01-29T10:36:04.295Z,8.70
2019-01-29T10:38:30.431Z,8.63
2019-01-29T10:40:56.717Z,7.23
2019-01-29T10:43:22.824Z,7.20
2019-01-29T10:45:49.104Z,7.50
2019-01-29T10:48:15.253Z,6.73
2019-01-29T10:50:41.503Z,9.00
2019-01-29T10:53:07.621Z,9.90
2019-01-29T10:55:33.922Z,8.47
2019-01-29T10:58:00.071Z,7.30
2019-01-29T11:00:32.624Z,8.83
2019-01-29T11:02:58.711Z,7.27
2019-01-29T11:05:25.169Z,9.63
2019-01-29T11:07:51.303Z,6.27
2019-01-29T11:10:18.610Z,8.83
2019-01-29T11:12:44.873Z,7.23
2019-01-29T11:15:23.485Z,5.70
2019-01-29T11:17:49.613Z,7.27
2019-01-29T11:20:17.644Z,6.17
2019-01-29T11:22:43.812Z,5.77
2019-01-29T11:25:13.704Z,8.20
2019-01-29T11:27:39.827Z,8.83
2019-01-29T11:30:09.569Z,8.67
2019-01-29T11:32:35.906Z,9.00
2019-01-29T11:35:02.114Z,5.63
2019-01-29T11:37:28.199Z,7.17
2019-01-29T11:39:54.360Z,5.40
2019-01-29T11:42:20.650Z,7.30
2019-01-29T11:44:46.911Z,7.83
2019-01-29T11:47:13.194Z,5.37
2019-01-29T11:49:39.311Z,8.97
2019-01-29T11:52:05.506Z,6.67
2019-01-29T11:54:31.683Z,8.63
2019-01-29T11:56:57.834Z,6.90
2019-01-29T11:59:24.046Z,6.40
2019-01-29T12:01:50.295Z,7.23
2019-01-29T12:04:16.416Z,5.33
2019-01-29T12:06:42.648Z,7.67
2019-01-29T12:09:08.998Z,7.20
2019-01-29T12:11:35.116Z,8.63
2019-01-29T12:14:01.251Z,8.73
2019-01-29T12:16:27.493Z,8.17
2019-01-29T12:18:53.729Z,8.13
2019-01-29T12:21:19.896Z,7.03
2019-01-29T12:23:46.259Z,7.30
2019-01-29T12:26:13.209Z,6.23
2019-01-29T12:28:39.701Z,7.40
2019-01-29T12:31:05.862Z,10.47
2019-01-29T12:33:32.149Z,8.07
2019-01-29T12:35:58.286Z,7.53
2019-01-29T12:38:24.583Z,10.40
2019-01-29T12:40:50.805Z,6.13
2019-01-29T12:43:16.974Z,7.57
2019-01-29T12:45:43.202Z,6.10
2019-01-29T12:48:09.404Z,6.57
2019-01-29T12:50:36.673Z,9.33
2019-01-29T12:53:08.558Z,9.30
2019-01-29T12:55:34.735Z,8.83
2019-01-29T12:58:00.911Z,10.03
2019-01-29T13:00:28.957Z,6.23
2019-01-29T13:02:55.071Z,9.63
2019-01-29T13:05:21.198Z,11.03
2019-01-29T13:07:47.363Z,9.27
2019-01-29T13:10:18.309Z,6.50
2019-01-29T13:12:44.510Z,7.17
2019-01-29T13:15:14.409Z,6.40
2019-01-29T13:17:40.748Z,6.80
2019-01-29T13:20:09.710Z,8.90
2019-01-29T13:22:36.078Z,8.33
2019-01-29T13:25:02.985Z,8.70
2019-01-29T13:27:29.260Z,8.27
2019-01-29T13:29:55.340Z,7.27
2019-01-29T13:32:21.594Z,9.63
2019-01-29T13:34:47.900Z,8.03
2019-01-29T13:37:14.047Z,7.73
2019-01-29T13:39:40.172Z,7.00
2019-01-29T13:42:06.218Z,10.60
2019-01-29T13:44:32.447Z,8.80
2019-01-29T13:46:58.595Z,8.00
2019-01-29T13:49:24.767Z,9.27
2019-01-29T13:51:54.488Z,6.07
2019-01-29T13:54:20.662Z,9.93
2019-01-29T13:56:46.877Z,7.30
2019-01-29T13:59:12.998Z,7.10
2019-01-29T14:01:39.225Z,6.77
2019-01-29T14:04:06.178Z,8.57
2019-01-29T14:06:32.884Z,8.77
2019-01-29T14:08:58.923Z,7.87
2019-01-29T14:11:25.043Z,5.37
2019-01-29T14:13:51.217Z,10.60
2019-01-29T14:16:17.391Z,7.20
2019-01-29T14:18:43.663Z,5.40
2019-01-29T14:21:09.784Z,9.20
2019-01-29T14:23:36.029Z,7.40
2019-01-29T14:26:02.152Z,7.87
2019-01-29T14:28:28.303Z,8.67
2019-01-29T14:30:54.573Z,9.60
2019-01-29T14:33:20.692Z,8.37
2019-01-29T14:35:46.842Z,9.00
2019-01-29T14:38:19.321Z,10.60
2019-01-29T14:40:45.582Z,9.17
2019-01-29T14:43:15.315Z,9.63
2019-01-29T14:45:41.558Z,8.90
2019-01-29T14:48:07.817Z,6.97
2019-01-29T14:50:33.981Z,10.10
2019-01-29T14:53:00.113Z,8.07
2019-01-29T14:55:26.973Z,9.77
2019-01-29T14:57:53.130Z,8.97
2019-01-29T15:00:22.882Z,7.90
2019-01-29T15:02:48.997Z,9.10
2019-01-29T15:05:15.260Z,8.43
2019-01-29T15:07:41.430Z,7.00
2019-01-29T15:10:30.885Z,11.13
2019-01-29T15:12:57.028Z,6.97
2019-01-29T15:15:31.638Z,7.03
2019-01-29T15:17:59.759Z,9.63
2019-01-29T15:20:25.940Z,7.83
2019-01-29T15:22:52.271Z,10.03
2019-01-29T15:25:18.516Z,7.97
2019-01-29T15:27:44.633Z,7.17
2019-01-29T15:30:14.487Z,7.17
2019-01-29T15:32:40.603Z,9.53
2019-01-29T15:35:07.184Z,11.30
2019-01-29T15:37:33.346Z,16.30
2019-01-29T15:39:59.510Z,14.27
2019-01-29T15:42:25.528Z,9.83
2019-01-29T15:44:53.373Z,12.17
2019-01-29T15:47:19.645Z,12.03
2019-01-29T15:49:45.918Z,9.60
2019-01-29T15:52:12.049Z,9.13
2019-01-29T15:54:38.226Z,11.87
2019-01-29T15:57:04.349Z,8.30
2019-01-29T15:59:30.596Z,9.10
2019-01-29T16:01:56.814Z,11.20
2019-01-29T16:04:23.080Z,9.27
2019-01-29T16:06:49.248Z,7.57
2019-01-29T16:09:15.440Z,9.17
2019-01-29T16:11:41.759Z,12.90
2019-01-29T16:14:07.995Z,14.37
2019-01-29T16:16:34.390Z,8.57
2019-01-29T16:19:00.522Z,8.37
2019-01-29T16:21:26.739Z,11.83
2019-01-29T16:23:52.994Z,12.20
2019-01-29T16:26:19.202Z,11.23
2019-01-29T16:28:45.448Z,8.43
2019-01-29T16:31:11.601Z,7.33
2019-01-29T16:33:37.700Z,10.87
2019-01-29T16:36:03.913Z,9.00
2019-01-29T16:38:30.066Z,10.47
2019-01-29T16:41:00.605Z,9.87
2019-01-29T16:43:24.942Z,10.40
2019-01-29T16:45:51.197Z,8.67
2019-01-29T16:48:17.203Z,10.07
2019-01-29T16:50:43.349Z,9.63
2019-01-29T16:53:10.454Z,10.90
2019-01-29T16:55:36.850Z,11.47
2019-01-29T16:58:04.216Z,8.87
2019-01-29T17:00:35.334Z,12.20
2019-01-29T17:03:01.902Z,10.37
2019-01-29T17:05:29.070Z,11.73
2019-01-29T17:07:55.314Z,9.17
2019-01-29T17:10:24.430Z,9.50
2019-01-29T17:12:50.728Z,10.57
2019-01-29T17:15:19.972Z,8.10
2019-01-29T17:17:46.210Z,10.87
2019-01-29T17:20:15.645Z,10.07
2019-01-29T17:22:41.924Z,11.27
2019-01-29T17:25:08.321Z,7.60
2019-01-29T17:27:40.128Z,9.40
2019-01-29T17:30:08.670Z,11.17
2019-01-29T17:32:34.891Z,7.33
2019-01-29T17:35:01.138Z,8.27
2019-01-29T17:37:27.372Z,9.27
2019-01-29T17:39:53.654Z,10.53
2019-01-29T17:42:19.900Z,9.87
2019-01-29T17:44:46.063Z,12.17
2019-01-29T17:47:14.113Z,10.87
2019-01-29T17:49:40.357Z,11.47
2019-01-29T17:52:06.478Z,8.77
2019-01-29T17:54:32.578Z,7.37
2019-01-29T17:56:58.797Z,9.23
2019-01-29T17:59:25.020Z,13.00
2019-01-29T18:01:51.253Z,11.43
2019-01-29T18:04:17.410Z,10.97
2019-01-29T18:06:43.562Z,12.17
2019-01-29T18:09:09.837Z,13.60
2019-01-29T18:11:36.387Z,12.00
2019-01-29T18:14:03.391Z,12.87
2019-01-29T18:16:29.529Z,11.97
2019-01-29T18:18:55.786Z,12.90
2019-01-29T18:21:22.130Z,13.00
2019-01-29T18:23:48.259Z,12.13
2019-01-29T18:26:14.459Z,12.53
2019-01-29T18:28:40.715Z,12.67
2019-01-29T18:31:07.159Z,12.87
2019-01-29T18:33:33.459Z,11.63
2019-01-29T18:35:59.617Z,11.40
2019-01-29T18:38:25.850Z,12.47
2019-01-29T18:40:52.155Z,11.67
2019-01-29T18:43:18.405Z,11.00
2019-01-29T18:45:44.539Z,13.80
2019-01-29T18:48:10.830Z,12.60
2019-01-29T18:50:37.138Z,11.57
2019-01-29T18:53:03.621Z,9.63
2019-01-29T18:55:29.808Z,13.10
2019-01-29T18:57:56.016Z,10.60
2019-01-29T19:00:24.282Z,10.20
2019-01-29T19:02:50.427Z,10.37
2019-01-29T19:05:18.182Z,10.93
2019-01-29T19:07:44.911Z,8.60
2019-01-29T19:10:16.422Z,9.33
2019-01-29T19:12:42.559Z,14.13
2019-01-29T19:15:12.529Z,14.53
2019-01-29T19:17:38.682Z,13.43
2019-01-29T19:20:10.856Z,8.10
2019-01-29T19:22:37.029Z,9.70
2019-01-29T19:25:06.167Z,12.13
2019-01-29T19:27:32.351Z,11.53
2019-01-29T19:30:00.184Z,11.97
2019-01-29T19:32:26.419Z,12.00
2019-01-29T19:34:52.680Z,12.17
2019-01-29T19:37:18.918Z,12.77
2019-01-29T19:39:45.201Z,15.00
2019-01-29T19:42:11.355Z,13.33
2019-01-29T19:44:37.490Z,13.40
2019-01-29T19:47:03.758Z,15.23
2019-01-29T19:49:32.964Z,12.13
2019-01-29T19:51:59.093Z,14.20
2019-01-29T19:54:25.410Z,14.73
2019-01-29T19:56:51.635Z,17.60
2019-01-29T19:59:17.796Z,17.10
2019-01-29T20:01:43.937Z,15.43
2019-01-29T20:04:10.111Z,12.50
2019-01-29T20:06:36.277Z,13.07
2019-01-29T20:09:07.437Z,16.50
2019-01-29T20:11:33.704Z,20.57
2019-01-29T20:13:59.972Z,12.73
2019-01-29T20:16:26.132Z,17.17
2019-01-29T20:18:52.259Z,12.83
2019-01-29T20:21:18.492Z,15.17
2019-01-29T20:23:44.604Z,13.63
2019-01-29T20:26:10.866Z,15.63
2019-01-29T20:28:42.409Z,13.67
2019-01-29T20:31:05.095Z,15.83
2019-01-29T20:33:34.385Z,15.67
2019-01-29T20:36:00.849Z,16.13
2019-01-29T20:38:27.118Z,14.57
2019-01-29T20:40:53.249Z,13.27
2019-01-29T20:43:19.483Z,15.57
2019-01-29T20:45:45.624Z,14.30
2019-01-29T20:48:11.886Z,15.20
2019-01-29T20:50:37.986Z,15.60
2019-01-29T20:53:04.352Z,12.77
2019-01-29T20:55:30.504Z,15.10
2019-01-29T20:57:57.233Z,17.30
2019-01-29T21:00:30.946Z,14.53
2019-01-29T21:02:59.424Z,15.90
2019-01-29T21:05:25.708Z,15.83
2019-01-29T21:07:51.837Z,15.20
2019-01-29T21:10:20.093Z,15.53
2019-01-29T21:12:46.331Z,19.23
2019-01-29T21:15:17.990Z,18.33
2019-01-29T21:17:44.370Z,14.57
2019-01-29T21:20:13.663Z,18.23
2019-01-29T21:22:39.957Z,20.17
2019-01-29T21:25:06.760Z,18.80
2019-01-29T21:27:32.915Z,24.03
2019-01-29T21:29:59.177Z,46.97
2019-01-29T21:32:25.425Z,33.20
2019-01-29T21:34:51.632Z,49.93
2019-01-29T21:37:17.911Z,31.47
2019-01-29T21:39:44.019Z,41.87
2019-01-29T21:42:10.187Z,31.90
2019-01-29T21:44:36.306Z,33.37
2019-01-29T21:47:04.315Z,24.33
2019-01-29T21:49:30.572Z,20.80
2019-01-29T21:51:56.809Z,20.37
2019-01-29T21:54:22.942Z,15.43
2019-01-29T21:56:49.946Z,15.60
2019-01-29T21:59:16.324Z,16.80
2019-01-29T22:01:42.538Z,13.60
2019-01-29T22:04:08.761Z,14.00
2019-01-29T22:06:34.916Z,13.70
2019-01-29T22:09:01.123Z,15.17
2019-01-29T22:11:27.254Z,14.27
2019-01-29T22:13:53.394Z,15.77
2019-01-29T22:16:19.629Z,18.40
2019-01-29T22:18:45.931Z,16.43
2019-01-29T22:21:12.063Z,14.63
2019-01-29T22:23:38.207Z,15.00
2019-01-29T22:26:04.396Z,15.00
2019-01-29T22:28:30.634Z,15.23
2019-01-29T22:30:56.742Z,16.67
2019-01-29T22:33:22.882Z,17.17
2019-01-29T22:35:49.022Z,17.07
2019-01-29T22:38:15.177Z,19.17
2019-01-29T22:40:41.320Z,22.57
2019-01-29T22:43:07.459Z,21.43
2019-01-29T22:45:33.556Z,20.50
2019-01-29T22:47:59.715Z,18.27
2019-01-29T22:50:30.995Z,22.13
2019-01-29T22:52:57.245Z,18.83
2019-01-29T22:55:23.346Z,16.17
2019-01-29T22:57:49.593Z,16.83
2019-01-29T23:00:50.204Z,26.53
2019-01-29T23:03:18.772Z,21.40
2019-01-29T23:05:48.012Z,20.07
2019-01-29T23:08:14.134Z,17.43
2019-01-29T23:10:40.279Z,16.97
2019-01-29T23:13:06.512Z,20.83
2019-01-29T23:15:32.763Z,18.13
2019-01-29T23:17:58.915Z,20.27
2019-01-29T23:20:25.072Z,24.13
2019-01-29T23:22:51.259Z,24.37
2019-01-29T23:25:17.528Z,25.37
2019-01-29T23:27:43.747Z,24.03
2019-01-29T23:30:15.746Z,26.17
2019-01-29T23:32:41.869Z,17.23
2019-01-29T23:35:08.100Z,22.63
2019-01-29T23:37:34.239Z,25.57
2019-01-29T23:40:00.460Z,23.43
2019-01-29T23:42:26.630Z,21.97
2019-01-29T23:44:52.744Z,22.27
2019-01-29T23:47:18.867Z,19.70
2019-01-29T23:49:45.059Z,20.00
2019-01-29T23:52:11.182Z,20.57
2019-01-29T23:54:37.281Z,20.83
2019-01-29T23:57:03.418Z,18.87
2019-01-29T23:59:29.557Z,22.37
